Time;durP1;ratioP1;P1;durP2;ratioP2;P2;SDS_P1;SDS_P2;PMS_P1;PMS_P2;Temp;Humidity;BMP_temperature;BMP_pressure;BME280_temperature;BME280_humidity;BME280_pressure;Samples;Min_cycle;Max_cycle;Signal;HPM_P1;HPM_P2
2021/03/18 00:00:40;;;;;;;38.20;27.75;;;;;;;;;;5092395;28;20024;-65
2021/03/18 00:03:06;;;;;;;34.53;24.38;;;;;;;;;;5092598;28;20024;-68
2021/03/18 00:05:32;;;;;;;28.48;21.10;;;;;;;;;;5092323;28;20024;-66
2021/03/18 00:07:59;;;;;;;32.80;23.02;;;;;;;;;;5092446;28;20028;-65
2021/03/18 00:10:25;;;;;;;32.22;22.17;;;;;;;;;;5092562;28;20034;-66
2021/03/18 00:12:51;;;;;;;37.55;26.55;;;;;;;;;;5091050;28;20062;-66
2021/03/18 00:15:17;;;;;;;52.40;33.25;;;;;;;;;;5092090;28;20025;-66
2021/03/18 00:17:43;;;;;;;47.75;29.25;;;;;;;;;;5092056;28;20032;-66
2021/03/18 00:20:11;;;;;;;48.17;28.48;;;;;;;;;;5091219;28;20028;-66
2021/03/18 00:22:44;;;;;;;49.55;29.80;;;;;;;;;;5083326;28;20020;-67
2021/03/18 00:25:11;;;;;;;48.10;30.55;;;;;;;;;;5071601;28;20020;-65
2021/03/18 00:27:38;;;;;;;50.95;32.00;;;;;;;;;;5073064;28;20093;-66
2021/03/18 00:30:05;;;;;;;45.60;29.60;;;;;;;;;;5093676;28;20584;-66
2021/03/18 00:32:32;;;;;;;32.17;21.25;;;204.80;1894.40;;;;;;5077867;28;20101;-65
2021/03/18 00:34:58;;;;;;;32.17;21.73;;;;;;;;;;5089471;28;20508;-66
2021/03/18 00:37:24;;;;;;;39.30;25.70;;;;;;;;;;5090792;28;20478;-65
2021/03/18 00:39:50;;;;;;;48.53;30.15;;;;;;;;;;5092953;28;20020;-66
2021/03/18 00:42:16;;;;;;;76.53;47.30;;;;;;;;;;5080915;28;20024;-66
2021/03/18 00:44:43;;;;;;;57.13;33.40;;;;;;;;;;5090900;28;20563;-65
2021/03/18 00:47:09;;;;;;;51.55;33.95;;;;;;;;;;5095843;28;20016;-64
2021/03/18 00:49:35;;;;;;;56.17;34.03;;;;;;;;;;5096100;28;20114;-61
2021/03/18 00:52:01;;;;;;;55.28;33.53;;;;;;;;;;5096030;28;20016;-66
2021/03/18 00:54:27;;;;;;;55.17;36.47;;;;;;;;;;5088172;28;20502;-66
2021/03/18 00:56:53;;;;;;;58.88;35.42;;;;;;;;;;5094380;28;20072;-65
2021/03/18 00:59:19;;;;;;;55.85;31.65;;;;;;;;;;5095602;28;20028;-65
2021/03/18 01:01:45;;;;;;;45.38;28.48;;;;;;;;;;5088500;28;20029;-66
2021/03/18 01:04:11;;;;;;;38.15;22.17;;;;;;;;;;5089655;28;20024;-67
2021/03/18 01:06:37;;;;;;;55.40;31.05;;;;;;;;;;5080552;28;20020;-64
2021/03/18 01:09:05;;;;;;;27.73;17.60;;;;;;;;;;5075130;28;20526;-67
2021/03/18 01:11:33;;;;;;;26.38;17.55;;;;;;;;;;5075314;28;20028;-67
2021/03/18 01:14:01;;;;;;;35.35;23.02;;;;;;;;;;5074904;28;20020;-66
2021/03/18 01:16:29;;;;;;;31.08;20.08;;;;;;;;;;5074956;28;20530;-65
2021/03/18 01:18:56;;;;;;;30.83;19.05;;;;;;;;;;5073607;28;20372;-66
2021/03/18 01:21:24;;;;;;;26.30;18.00;;;;;;;;;;5075061;28;20024;-66
2021/03/18 01:23:50;;;;;;;25.98;18.13;;;;;;;;;;5074889;28;20035;-69
2021/03/18 01:26:16;;;;;;;32.83;23.00;;;;;;;;;;5060730;28;20030;-65
2021/03/18 01:28:43;;;;;;;33.85;21.75;;;;;;;;;;5068982;28;20040;-70
2021/03/18 01:31:10;;;;;;;24.73;17.98;;;;;;;;;;5074676;28;20489;-69
2021/03/18 01:33:36;;;;;;;27.70;18.65;;;;;;;;;;5074963;28;20025;-73
2021/03/18 01:36:04;;;;;;;29.15;18.15;;;;;;;;;;5074613;28;20028;-67
2021/03/18 01:38:30;;;;;;;24.77;16.52;;;;;;;;;;5065918;28;20474;-66
2021/03/18 01:40:57;;;;;;;25.20;18.35;;;;;;;;;;5074398;28;20020;-67
2021/03/18 01:43:24;;;;;;;24.52;16.30;;;;;;;;;;5079656;28;20140;-67
2021/03/18 01:45:50;;;;;;;24.73;16.38;;;;;;;;;;5094971;28;20081;-67
2021/03/18 01:48:16;;;;;;;26.10;17.33;;;;;;;;;;5094570;28;20016;-65
2021/03/18 01:50:43;;;;;;;29.23;26.02;;;;;;;;;;5095217;28;20131;-68
2021/03/18 01:53:09;;;;;;;30.73;23.25;;;;;;;;;;5094610;28;20024;-68
2021/03/18 01:55:40;;;;;;;30.10;23.75;;;;;;;;;;5086071;28;20016;-67
2021/03/18 01:58:06;;;;;;;30.40;22.13;;;;;;;;;;5094338;28;20032;-65
2021/03/18 02:00:34;;;;;;;25.88;18.27;;;;;;;;;;5094495;28;20477;-67
2021/03/18 02:03:00;;;;;;;29.75;21.25;;;;;;;;;;5094899;28;20024;-67
2021/03/18 02:05:27;;;;;;;34.60;21.98;;;;;;;;;;5093090;28;20042;-64
2021/03/18 02:07:54;;;;;;;35.40;25.73;;;;;;;;;;5094491;28;20541;-63
2021/03/18 02:10:23;;;;;;;34.33;22.98;;;;;;;;;;5094405;28;20103;-63
2021/03/18 02:12:49;;;;;;;32.10;23.25;;;;;;;;;;5094301;28;20491;-64
2021/03/18 02:15:16;;;;;;;33.70;23.95;;;;;;;;;;5094187;28;20028;-65
2021/03/18 02:18:01;;;;;;;39.38;28.80;;;;;;;;;;5094122;28;20032;-62
2021/03/18 02:20:39;;;;;;;38.67;26.13;;;;;;;;;;5094166;28;20035;-63
2021/03/18 02:23:11;;;;;;;33.50;24.42;;;;;;;;;;5094145;28;20073;-64
2021/03/18 02:25:47;;;;;;;36.63;26.67;;;;;;;;;;5080068;28;20031;-63
2021/03/18 02:28:19;;;;;;;36.70;26.75;;;;;;;;;;5094252;28;20035;-61
2021/03/18 02:30:51;;;;;;;39.60;27.55;;;;;;;;;;5094027;28;20039;-63
2021/03/18 02:33:36;;;;;;;35.08;23.08;;;;;;;;;;5093921;28;20021;-64
2021/03/18 02:36:07;;;;;;;31.85;23.38;;;;;;;;;;5093831;28;20031;-64
2021/03/18 02:38:35;;;;;;;31.10;23.77;;;;;;;;;;5093988;28;20039;-65
2021/03/18 02:41:04;;;;;;;36.85;23.52;;;;;;;;;;5093735;28;20020;-65
2021/03/18 02:43:32;;;;;;;29.42;19.08;;;;;;;;;;5066028;28;20062;-65
2021/03/18 02:46:00;;;;;;;34.80;22.38;;;;;;;;;;5093698;28;20032;-64
2021/03/18 02:48:34;;;;;;;29.60;19.33;;;;;;;;;;5093490;28;20047;-64
2021/03/18 02:51:00;;;;;;;30.40;20.55;;;;;;;;;;5092833;28;20017;-63
2021/03/18 02:53:28;;;;;;;29.08;19.42;;;;;;;;;;5093702;28;20042;-64
2021/03/18 02:55:55;;;;;;;30.00;21.58;;;;;;;;;;5085010;28;20387;-64
2021/03/18 02:58:23;;;;;;;29.75;21.17;;;;;;;;;;5093202;28;20040;-65
2021/03/18 03:00:51;;;;;;;33.03;19.70;;;;;;;;;;5093480;28;20099;-65
2021/03/18 03:03:18;;;;;;;34.22;21.42;;;;;;;;;;5093375;28;20034;-62
2021/03/18 03:05:48;;;;;;;34.30;21.02;;;;;;;;;;5093432;28;20032;-64
2021/03/18 03:08:14;;;;;;;32.20;20.42;;;;;;;;;;5093337;28;20024;-64
2021/03/18 03:10:41;;;;;;;35.25;23.92;;;;;;;;;;5065326;28;20532;-64
2021/03/18 03:13:07;;;;;;;35.15;23.85;;;;;;;;;;5093193;28;20047;-66
2021/03/18 03:15:34;;;;;;;37.30;24.10;;;;;;;;;;5092991;28;20024;-65
2021/03/18 03:18:02;;;;;;;33.45;22.70;;;;;;;;;;5093005;28;20032;-66
2021/03/18 03:20:29;;;;;;;30.20;20.23;;;;;;;;;;5092862;28;20016;-65
2021/03/18 03:22:55;;;;;;;30.02;20.52;;;;;;;;;;5093096;28;20028;-66
2021/03/18 03:25:21;;;;;;;32.55;21.77;;;;;;;;;;5079038;28;20035;-65
2021/03/18 03:27:48;;;;;;;33.25;24.92;;;;;;;;;;5092982;28;20089;-62
2021/03/18 03:30:15;;;;;;;35.55;22.00;;;;;;;;;;5092898;28;20050;-62
2021/03/18 03:32:42;;;;;;;32.47;24.02;;;;;;;;;;5092598;28;20031;-62
2021/03/18 03:35:08;;;;;;;31.02;22.35;;;;;;;;;;5093086;28;20099;-65
2021/03/18 03:37:35;;;;;;;29.40;20.98;;;;;;;;;;5092572;28;20377;-64
2021/03/18 03:40:02;;;;;;;30.35;21.83;;;;;;;;;;5092901;28;20028;-65
2021/03/18 03:42:28;;;;;;;32.65;26.92;;;;;;;;;;5080613;28;20086;-64
2021/03/18 03:44:54;;;;;;;24.83;19.10;;;;;;;;;;5090224;28;20403;-67
2021/03/18 03:47:20;;;;;;;23.30;17.95;;;;;;;;;;5090751;28;20052;-68
2021/03/18 03:49:46;;;;;;;22.52;16.58;;;;;;;;;;5092475;28;20447;-67
2021/03/18 03:52:28;;;;;;;25.85;18.30;;;;;;;;;;5092479;28;20052;-67
2021/03/18 03:55:02;;;;;;;27.50;19.77;;;;;;;;;;5083971;28;20035;-66
2021/03/18 03:57:52;;;;;;;27.58;20.40;;;;;;;;;;5092255;28;20558;-70
2021/03/18 04:00:19;;;;;;;25.30;18.45;;;;;;;;;;5092233;28;20031;-68
2021/03/18 04:02:46;;;;;;;30.13;20.13;;;;;;;;;;5092194;28;20023;-70
2021/03/18 04:05:13;;;;;;;32.90;21.60;;;;;;;;;;5092216;28;20020;-70
2021/03/18 04:07:40;;;;;;;34.45;22.02;;;;;;;;;;5092258;28;20035;-70
2021/03/18 04:10:07;;;;;;;35.53;21.83;;;;;;;;;;5092170;28;20028;-70
2021/03/18 04:12:39;;;;;;;25.80;17.13;;;;;;;;;;5091946;28;20028;-71
2021/03/18 04:15:09;;;;;;;27.52;18.48;;;;;;;;;;5092185;28;20040;-71
2021/03/18 04:17:37;;;;;;;27.65;19.23;;;;;;;;;;5092087;28;20068;-71
2021/03/18 04:20:06;;;;;;;32.83;22.15;;;;;;;;;;5092267;28;20028;-71
2021/03/18 04:22:32;;;;;;;32.17;21.83;;;;;;;;;;5091905;28;20016;-71
2021/03/18 04:25:00;;;;;;;36.85;25.52;;;;;;;;;;5081021;28;20494;-67
2021/03/18 04:27:28;;;;;;;44.00;30.23;;;;;;;;;;5090075;28;20108;-71
2021/03/18 04:29:55;;;;;;;38.67;26.55;;;;;;;;;;5092079;28;20410;-71
2021/03/18 04:32:21;;;;;;;33.53;24.48;;;;;;;;;;5090621;28;20020;-70
2021/03/18 04:34:47;;;;;;;29.80;21.23;;;;;;;;;;5092339;28;20020;-70
2021/03/18 04:37:14;;;;;;;37.20;25.65;;;;;;;;;;5091771;28;20386;-70
2021/03/18 04:39:41;;;;;;;44.47;26.92;;;;;;;;;;5091874;28;20028;-71
2021/03/18 04:42:07;;;;;;;36.92;22.08;;;;;;;;;;5082971;28;20379;-70
2021/03/18 04:44:34;;;;;;;28.90;21.00;;;;;;;;;;5086682;28;20055;-71
2021/03/18 04:47:01;;;;;;;31.33;20.05;;;;;;;;;;5092035;28;20095;-69
2021/03/18 04:49:27;;;;;;;33.15;23.23;;;;;;;;;;5091606;28;20032;-65
2021/03/18 04:51:54;;;;;;;34.83;22.88;;;;;;;;;;5091767;28;20032;-64
2021/03/18 04:54:20;;;;;;;26.58;19.55;;;;;;;;;;5086178;28;20027;-66
2021/03/18 04:56:47;;;;;;;31.50;22.85;;;;;;;;;;5089309;28;20028;-66
2021/03/18 04:59:14;;;;;;;39.95;25.17;;;;;;;;;;5091685;28;20036;-66
2021/03/18 05:01:43;;;;;;;38.30;24.40;;;;;;;;;;5086891;28;20021;-66
2021/03/18 05:04:10;;;;;;;34.13;23.05;;;;;;;;;;5091797;28;20024;-65
2021/03/18 05:06:36;;;;;;;32.28;21.58;;;;;;;;;;5091703;28;20378;-65
2021/03/18 05:09:04;;;;;;;37.00;24.67;;;;;;;;;;5091716;28;20031;-64
2021/03/18 05:11:30;;;;;;;34.70;23.63;;;;;;;;;;5091667;28;20027;-65
2021/03/18 05:13:56;;;;;;;32.30;23.52;;;;;;;;;;5091309;28;20016;-60
2021/03/18 05:16:23;;;;;;;35.15;24.25;;;;;;;;;;5095776;28;20042;-67
2021/03/18 05:18:49;;;;;;;37.25;25.42;;;;;;;;;;5095250;28;20035;-62
2021/03/18 05:21:15;;;;;;;44.58;28.40;;;;;;;;;;5095379;28;20016;-65
2021/03/18 05:23:42;;;;;;;42.17;29.88;;;;;;;;;;5095060;28;20103;-65
2021/03/18 05:26:09;;;;;;;43.00;27.92;;;;;;;;;;5082778;28;20429;-67
2021/03/18 05:28:35;;;;;;;48.58;32.50;;;;;;;;;;5082106;28;20140;-70
2021/03/18 05:31:01;;;;;;;45.95;32.45;;;;;;;;;;5094772;28;20020;-69
2021/03/18 05:33:27;;;;;;;39.35;29.05;;;;;;;;;;5093865;28;20024;-69
2021/03/18 05:35:54;;;;;;;45.20;28.98;;;;;;;;;;5094988;28;20023;-69
2021/03/18 05:38:20;;;;;;;58.25;33.25;;;;;;;;;;5094982;28;20181;-67
2021/03/18 05:40:48;;;;;;;58.97;37.63;;;;;;;;;;5095160;28;20024;-69
2021/03/18 05:43:14;;;;;;;45.63;29.75;;;;;;;;;;5080144;28;20057;-67
2021/03/18 05:45:40;;;;;;;42.50;31.17;;;;;;;;;;5094913;28;20111;-66
2021/03/18 05:48:06;;;;;;;43.92;29.15;;;;;;;;;;5094571;28;20470;-66
2021/03/18 05:50:33;;;;;;;34.75;23.52;;;;;;;;;;5094910;28;20028;-66
2021/03/18 05:53:00;;;;;;;42.75;28.40;;;;;;;;;;5094813;28;20032;-67
2021/03/18 05:55:27;;;;;;;34.35;23.58;;;;;;;;;;5087029;28;20059;-67
2021/03/18 05:57:55;;;;;;;30.23;20.05;;;;;;;;;;5093339;28;20563;-67
2021/03/18 06:00:21;;;;;;;34.75;23.17;;;;;;;;;;5094474;28;20020;-67
2021/03/18 06:02:47;;;;;;;42.17;30.08;;;;;;;;;;5094550;28;20032;-68
2021/03/18 06:05:15;;;;;;;48.65;33.60;;;;;;;;;;5094233;28;20111;-67
2021/03/18 06:07:42;;;;;;;50.28;32.60;;;;;;;;;;5094724;28;20356;-66
2021/03/18 06:10:11;;;;;;;56.85;37.65;;;;;;;;;;5092602;28;20123;-67
2021/03/18 06:12:38;;;;;;;51.17;37.00;;;;;;;;;;5094430;28;20545;-68
2021/03/18 06:15:08;;;;;;;57.78;35.83;;;;;;;;;;5094427;28;20043;-68
2021/03/18 06:17:34;;;;;;;43.70;31.15;;;;;;;;;;5094320;28;20379;-69
2021/03/18 06:20:01;;;;;;;44.15;29.33;;;;;;;;;;5094192;28;20028;-68
2021/03/18 06:22:35;;;;;;;55.40;33.72;;;;;;;;;;5093982;28;20031;-67
2021/03/18 06:25:01;;;;;;;49.85;33.97;;;;;;;;;;5083329;28;20025;-66
2021/03/18 06:27:28;;;;;;;47.70;35.92;;;;;;;;;;5091042;28;20089;-68
2021/03/18 06:29:55;;;;;;;56.60;40.85;;;;;;;;;;5083514;28;20533;-66
2021/03/18 06:32:22;;;;;;;64.05;44.63;;;;;;;;;;5090429;28;20060;-67
2021/03/18 06:34:51;;;;;;;76.63;49.78;;;;;;;;;;5093743;28;20017;-67
2021/03/18 06:37:34;;;;;;;61.00;38.90;;;;;;;;;;5093379;28;20028;-68
2021/03/18 06:40:03;;;;;;;62.42;39.88;;;;;;;;;;5093743;28;20024;-68
2021/03/18 06:42:29;;;;;;;64.72;41.08;;;;;;;;;;5081463;28;20470;-67
2021/03/18 06:45:04;;;;;;;43.58;27.45;;;;;;;;;;5091322;28;20131;-68
2021/03/18 06:47:43;;;;;;;59.80;37.75;;;;;;;;;;5093662;28;20039;-68
2021/03/18 06:50:09;;;;;;;51.05;34.10;;;;;;;;;;5093545;28;20098;-70
2021/03/18 06:52:37;;;;;;;52.90;33.42;;;;;;;;;;5093635;28;20024;-70
2021/03/18 06:55:03;;;;;;;49.65;32.53;;;;;;;;;;5085795;28;20046;-64
2021/03/18 06:57:29;;;;;;;51.75;32.15;;;;;;;;;;5093353;28;20024;-64
2021/03/18 06:59:55;;;;;;;42.72;28.23;;;;;;;;;;5093224;28;20027;-65
2021/03/18 07:02:21;;;;;;;41.85;26.63;;;;;;;;;;5093308;28;20023;-64
2021/03/18 07:04:55;;;;;;;45.90;30.83;;;;;;;;;;5093248;28;20079;-66
2021/03/18 07:07:22;;;;;;;48.25;30.98;;;;;;;;;;5066221;28;20020;-67
2021/03/18 07:09:49;;;;;;;44.53;30.08;;;;;;;;;;5093589;28;20103;-62
2021/03/18 07:12:17;;;;;;;42.42;29.00;;;;;;;;;;5093008;28;20081;-65
2021/03/18 07:14:47;;;;;;;52.15;35.35;;;;;;;;;;5093344;28;20047;-66
2021/03/18 07:17:20;;;;;;;37.95;27.23;;;;;;;;;;5092657;28;20546;-62
2021/03/18 07:19:46;;;;;;;35.40;25.00;;;;;;;;;;5092896;28;20040;-71
2021/03/18 07:22:17;;;;;;;42.80;27.90;;;;;;;;;;5092999;28;20020;-68
2021/03/18 07:24:43;;;;;;;37.50;25.60;;;;;;;;;;5084621;28;20032;-68
2021/03/18 07:27:15;;;;;;;45.92;27.95;;;;;;;;;;5088254;28;20031;-63
2021/03/18 07:29:42;;;;;;;37.28;26.67;;;;;;;;;;5092592;28;20073;-66
2021/03/18 07:32:09;;;;;;;152.60;85.90;;;;;;;;;;5092804;28;20103;-65
2021/03/18 07:34:35;;;;;;;80.65;47.72;;;;;;;;;;5092525;28;20035;-68
2021/03/18 07:37:02;;;;;;;80.88;52.70;;;;;;;;;;5092155;28;20131;-62
2021/03/18 07:39:28;;;;;;;44.05;30.00;;;;;;;;;;5092609;28;20104;-68
2021/03/18 07:41:55;;;;;;;44.75;30.35;;;;;;;;;;5085040;28;20043;-68
2021/03/18 07:44:22;;;;;;;46.17;31.23;;;;;;;;;;5085465;28;20089;-67
2021/03/18 07:46:49;;;;;;;43.55;27.77;;;;;;;;;;5092177;28;20020;-67
2021/03/18 07:49:16;;;;;;;52.13;34.47;;;;;;;;;;5092129;28;20061;-69
2021/03/18 07:51:44;;;;;;;53.85;36.28;;;;;;;;;;5092409;28;20407;-65
2021/03/18 07:54:17;;;;;;;50.55;36.05;;;;;;;;;;5088800;28;20030;-66
2021/03/18 07:57:01;;;;;;;45.05;32.00;;;;;;;;;;5089162;28;20387;-68
2021/03/18 07:59:33;;;;;;;55.63;31.83;;;;;;;;;;5092178;28;20048;-69
2021/03/18 08:02:19;;;;;;;50.80;33.85;;;205.60;1817.60;;;;;;5092015;28;20020;-68
2021/03/18 08:04:48;;;;;;;37.80;26.98;;;205.40;1817.60;;;;;;5092061;28;20085;-67
2021/03/18 08:07:43;;;;;;;44.28;27.70;;;205.50;1817.60;;;;;;5091727;28;20113;-66
2021/03/18 08:10:24;;;;;;;47.08;31.45;;;205.50;1792.00;;;;;;5091878;28;20019;-66
2021/03/18 08:12:59;;;;;;;204.03;117.23;;;205.40;1843.20;;;;;;5092035;28;20086;-61
2021/03/18 08:15:27;;;;;;;72.10;52.28;;;205.40;1843.20;;;;;;5091738;28;20031;-63
2021/03/18 08:17:55;;;;;;;135.43;120.80;;;;;;;;;;5091955;28;20035;-65
2021/03/18 08:20:42;;;;;;;45.28;34.08;;;230.40;1792.00;;;;;;5091425;28;20020;-67
2021/03/18 08:23:25;;;;;;;33.67;28.00;;;205.40;1817.60;;;;;;5091748;28;20360;-67
2021/03/18 08:26:01;;;;;;;36.83;24.83;;;205.50;1817.60;;;;;;5079218;28;20092;-67
2021/03/18 08:28:39;;;;;;;30.95;21.65;;;205.50;1817.60;;;;;;5091959;28;20918;-66
2021/03/18 08:31:06;;;;;;;30.35;20.92;;;205.60;1792.00;;;;;;5063990;28;20070;-64
2021/03/18 08:33:34;;;;;;;36.88;24.55;;;205.40;1945.60;;;;;;5091906;28;20017;-64
2021/03/18 08:36:18;;;;;;;39.53;28.75;;;205.30;1792.00;;;;;;5091709;28;20017;-65
2021/03/18 08:38:45;;;;;;;41.20;29.80;;;;;;;;;;5091287;28;20032;-65
2021/03/18 08:41:23;;;;;;;32.10;21.73;;;;;;;;;;5071845;28;20117;-63
2021/03/18 08:44:07;;;;;;;37.50;28.40;;;;;;;;;;5080121;28;20075;-64
2021/03/18 08:46:39;;;;;;;30.85;21.98;;;;;;;;;;5091546;28;20031;-64
2021/03/18 08:49:24;;;;;;;45.85;28.83;;;;;;;;;;5091812;28;20024;-66
2021/03/18 08:51:51;;;;;;;35.05;26.02;;;;;;;;;;5095460;28;20053;-64
2021/03/18 08:54:35;;;;;;;124.30;84.03;;;;;;;;;;5091417;28;20089;-65
2021/03/18 08:57:02;;;;;;;72.20;53.72;;;;;;;;;;5095106;28;20023;-65
2021/03/18 08:59:28;;;;;;;47.05;30.92;;;;;;;;;;5095464;28;20032;-67
2021/03/18 09:02:07;;;;;;;73.57;49.95;;;;;;;;;;5095453;28;20020;-63
2021/03/18 09:04:36;;;;;;;39.45;29.20;;;;;;;;;;5089659;28;20351;-65
2021/03/18 09:07:03;;;;;;;40.35;28.80;;;;;;;;;;5095151;28;20022;-62
2021/03/18 09:09:29;;;;;;;42.35;30.38;;;;;;;;;;5095344;28;20475;-65
2021/03/18 09:11:56;;;;;;;46.25;33.25;;;;;;;;;;5095162;28;20375;-63
2021/03/18 09:14:22;;;;;;;44.30;31.42;;;;;;;;;;5095073;28;20020;-66
2021/03/18 09:16:49;;;;;;;38.65;30.55;;;;;;;;;;5095066;28;20039;-67
2021/03/18 09:19:15;;;;;;;42.42;31.10;;;;;;;;;;5095143;28;20034;-67
2021/03/18 09:21:43;;;;;;;40.08;31.45;;;;;;;;;;5095238;28;20052;-65
2021/03/18 09:24:11;;;;;;;40.92;31.90;;;;;;;;;;5092079;28;20105;-68
2021/03/18 09:26:40;;;;;;;31.15;24.13;;;;;;;;;;5086377;28;20100;-65
2021/03/18 09:29:06;;;;;;;39.13;29.00;;;;;;;;;;5079636;28;20107;-64
2021/03/18 09:31:32;;;;;;;37.03;28.25;;;;;;;;;;5094935;28;20032;-63
2021/03/18 09:33:59;;;;;;;39.17;29.55;;;;;;;;;;5094936;28;20021;-67
2021/03/18 09:36:27;;;;;;;50.97;35.75;;;;;;;;;;5094951;28;20044;-68
2021/03/18 09:39:08;;;;;;;33.65;24.90;;;230.80;1689.60;;;;;;5094597;28;20081;-64
2021/03/18 09:41:39;;;;;;;33.17;27.75;;;230.80;1638.40;;;;;;5093163;28;20077;-68
2021/03/18 09:44:08;;;;;;;43.72;33.75;;;230.70;1612.80;;;;;;5092615;28;20054;-68
2021/03/18 09:46:35;;;;;;;41.33;31.45;;;231.00;1638.40;;;;;;5091905;28;20060;-69
2021/03/18 09:49:01;;;;;;;44.92;32.42;;;231.00;1638.40;;;;;;5091910;28;20482;-65
2021/03/18 09:51:27;;;;;;;32.65;24.50;;;231.20;1638.40;;;;;;5091059;28;20020;-70
2021/03/18 09:53:58;;;;;;;32.47;24.67;;;;;;;;;;5092630;28;20024;-65
2021/03/18 09:56:24;;;;;;;32.08;23.73;;;230.70;1612.80;;;;;;5091885;28;20020;-66
2021/03/18 09:58:50;;;;;;;31.38;21.52;;;230.70;1894.40;;;;;;5093315;28;20035;-67
2021/03/18 10:01:22;;;;;;;32.92;22.33;;;230.50;1612.80;;;;;;5093193;28;20024;-66
2021/03/18 10:04:02;;;;;;;39.30;27.02;;;230.50;1612.80;;;;;;5088458;28;20028;-65
2021/03/18 10:06:32;;;;;;;37.45;27.27;;;;;;;;;;5091488;28;20023;-66
2021/03/18 10:09:19;;;;;;;40.28;27.98;;;231.10;1920.00;;;;;;5088898;28;20060;-62
2021/03/18 10:11:53;;;;;;;52.28;35.92;;;231.20;1612.80;;;;;;5085522;28;20032;-63
2021/03/18 10:14:27;;;;;;;42.72;30.90;;;231.00;1638.40;;;;;;5073757;28;20033;-63
2021/03/18 10:16:53;;;;;;;29.23;23.30;;;231.10;1587.20;;;;;;5073897;28;20035;-61
2021/03/18 10:19:23;;;;;;;43.90;29.48;;;231.00;1587.20;;;;;;5073812;28;20447;-62
2021/03/18 10:21:51;;;;;;;37.65;28.67;;;231.00;1587.20;;;;;;5073899;28;20024;-62
2021/03/18 10:24:17;;;;;;;31.75;23.63;;;;;;;;;;5073284;28;20023;-62
2021/03/18 10:26:44;;;;;;;38.92;28.52;;;;;;;;;;5073671;28;20025;-61
2021/03/18 10:29:11;;;;;;;27.80;21.27;;;;;;;;;;5073652;28;20046;-62
2021/03/18 10:31:38;;;;;;;36.83;26.17;;;;;;;;;;5073582;28;20032;-62
2021/03/18 10:34:05;;;;;;;29.20;22.73;;;256.00;1536.00;;;;;;5073405;28;20017;-63
2021/03/18 10:36:41;;;;;;;27.88;20.90;;;;;;;;;;5083838;28;20029;-64
2021/03/18 10:39:09;;;;;;;29.65;22.77;;;;;;;;;;5073273;28;20033;-61
2021/03/18 10:41:50;;;;;;;28.35;21.13;;;231.30;1510.40;;;;;;5083197;28;20381;-61
2021/03/18 10:44:17;;;;;;;37.03;25.37;;;231.10;1536.00;;;;;;5091478;28;20406;-61
2021/03/18 10:46:42;;;;;;;34.63;25.05;;;231.20;1587.20;;;;;;5089798;28;20123;-61
2021/03/18 10:49:11;;;;;;;36.35;29.80;;;256.10;1561.60;;;;;;5090436;28;20576;-61
2021/03/18 10:51:52;;;;;;;37.42;27.83;;;282.50;1484.80;;;;;;5078068;28;20052;-62
2021/03/18 10:54:22;;;;;;;36.72;28.23;;;410.20;1100.80;;;;;;5090362;28;20381;-62
2021/03/18 10:56:52;;;;;;;24.70;19.88;;;435.70;1024.00;;;;;;5092367;28;20132;-64
2021/03/18 10:59:22;;;;;;;21.20;17.90;;;487.10;896.00;;;;;;5082599;28;20032;-61
2021/03/18 11:01:48;;;;;;;21.48;17.17;;;486.70;870.40;;;;;;5076507;28;20012;-61
2021/03/18 11:04:14;;;;;;;21.30;17.48;;;461.00;947.20;;;;;;5063824;28;20025;-62
2021/03/18 11:06:51;;;;;;;20.85;16.30;;;435.90;921.60;;;;;;5071792;28;20493;-61
2021/03/18 11:09:18;;;;;;;29.40;22.95;;;435.30;972.80;;;;;;5072553;28;20367;-62
2021/03/18 11:11:53;;;;;;;24.60;18.02;;;409.80;1126.40;;;;;;5072109;28;20355;-61
2021/03/18 11:14:19;;;;;;;19.73;16.08;;;384.10;1049.60;;;;;;5072938;28;20028;-63
2021/03/18 11:16:45;;;;;;;24.58;17.80;;;358.80;1126.40;;;;;;5072198;28;20028;-61
2021/03/18 11:19:19;;;;;;;26.40;17.65;;;333.50;1203.20;;;;;;5072503;28;20029;-62
2021/03/18 11:21:46;;;;;;;20.67;15.43;;;358.50;1126.40;;;;;;5072094;28;20021;-61
2021/03/18 11:24:17;;;;;;;26.17;17.50;;;333.60;1126.40;;;;;;5072309;28;20047;-63
2021/03/18 11:26:58;;;;;;;33.95;19.08;;;333.10;1203.20;;;;;;5072329;28;20699;-61
2021/03/18 11:29:30;;;;;;;23.75;17.23;;;308.10;1228.80;;;;;;5072420;28;20375;-62
2021/03/18 11:31:59;;;;;;;48.65;31.52;;;307.80;1228.80;;;;;;5072333;28;20487;-62
2021/03/18 11:34:26;;;;;;;50.65;31.77;;;282.50;1305.60;;;;;;5072286;28;20043;-62
2021/03/18 11:36:57;;;;;;;48.10;29.40;;;282.40;1305.60;;;;;;5071906;28;20082;-63
2021/03/18 11:39:23;;;;;;;53.17;36.30;;;282.40;1331.20;;;;;;5070689;28;20044;-63
2021/03/18 11:41:53;;;;;;;45.15;30.33;;;282.40;1331.20;;;;;;5071877;28;20440;-62
2021/03/18 11:44:19;;;;;;;59.38;38.08;;;307.60;1280.00;;;;;;5085420;28;20048;-62
2021/03/18 11:46:45;;;;;;;66.75;42.42;;;307.80;1254.40;;;;;;5092242;28;20509;-64
2021/03/18 11:49:12;;;;;;;57.15;37.55;;;307.50;1280.00;;;;;;5092226;28;20059;-62
2021/03/18 11:51:38;;;;;;;65.05;39.28;;;307.20;1305.60;;;;;;5092127;28;20016;-62
2021/03/18 11:54:05;;;;;;;74.13;50.28;;;282.40;1305.60;;;;;;5090721;28;20441;-62
2021/03/18 11:56:31;;;;;;;71.70;47.40;;;282.10;1331.20;;;;;;5087554;28;20020;-61
2021/03/18 11:58:57;;;;;;;63.25;45.58;;;281.70;1356.80;;;;;;5091896;28;20600;-61
2021/03/18 12:01:23;;;;;;;63.47;42.63;;;256.90;1356.80;;;;;;5092003;28;20082;-61
2021/03/18 12:03:50;;;;;;;64.40;42.78;;;256.90;1356.80;;;;;;5092040;28;20020;-61
2021/03/18 12:06:16;;;;;;;42.95;33.42;;;256.50;1382.40;;;;;;5092000;28;20031;-61
2021/03/18 12:08:41;;;;;;;63.00;43.45;;;256.50;1382.40;;;;;;5091920;28;20020;-62
2021/03/18 12:11:07;;;;;;;72.82;53.75;;;;;;;;;;5091838;28;20164;-63
2021/03/18 12:13:34;;;;;;;73.88;47.50;;;256.50;1408.00;;;;;;5092164;28;20040;-62
2021/03/18 12:16:00;;;;;;;58.85;38.72;;;256.40;1433.60;;;;;;5092206;28;20027;-62
2021/03/18 12:18:26;;;;;;;55.22;39.53;;;256.40;1408.00;;;;;;5091821;28;20436;-61
2021/03/18 12:20:52;;;;;;;56.20;37.80;;;256.40;1408.00;;;;;;5063418;28;20020;-62
2021/03/18 12:23:19;;;;;;;49.28;34.10;;;256.30;1433.60;;;;;;5091860;28;20028;-63
2021/03/18 12:25:45;;;;;;;42.15;27.27;;;256.20;1459.20;;;;;;5080316;28;20049;-62
2021/03/18 12:28:11;;;;;;;44.22;26.20;;;256.30;1433.60;;;;;;5091781;28;20028;-60
2021/03/18 12:30:36;;;;;;;65.38;38.58;;;256.50;1459.20;;;;;;5091766;28;20020;-61
2021/03/18 12:33:02;;;;;;;55.25;34.08;;;256.70;1408.00;;;;;;5091790;28;20028;-61
2021/03/18 12:35:28;;;;;;;39.03;24.80;;;256.80;1408.00;;;;;;5077301;28;20048;-63
2021/03/18 12:37:54;;;;;;;40.85;28.73;;;256.60;1408.00;;;;;;5091468;28;20060;-62
2021/03/18 12:40:22;;;;;;;52.35;30.10;;;256.50;1382.40;;;;;;5091767;28;20027;-61
2021/03/18 12:42:48;;;;;;;50.97;30.00;;;256.50;1382.40;;;;;;5077634;28;20056;-62
2021/03/18 12:45:15;;;;;;;39.45;24.05;;;256.40;1382.40;;;;;;5091283;28;20078;-60
2021/03/18 12:47:41;;;;;;;54.75;35.88;;;256.50;1382.40;;;;;;5091595;28;20027;-61
2021/03/18 12:50:10;;;;;;;39.45;28.02;;;256.30;1382.40;;;;;;5091353;28;20382;-61
2021/03/18 12:52:36;;;;;;;35.45;25.85;;;256.20;1408.00;;;;;;5091622;28;20077;-62
2021/03/18 12:55:07;;;;;;;32.40;21.70;;;256.20;1433.60;;;;;;5071451;28;20016;-60
2021/03/18 12:57:33;;;;;;;41.60;28.02;;;;;;;;;;5089902;28;20283;-61
2021/03/18 12:59:59;;;;;;;43.67;28.55;;;;;;;;;;5091132;28;20032;-63
2021/03/18 13:02:25;;;;;;;35.42;25.23;;;;;;;;;;5091446;28;20157;-61
2021/03/18 13:04:51;;;;;;;28.25;22.70;;;;;;;;;;5091056;28;20028;-61
2021/03/18 13:07:18;;;;;;;51.13;29.60;;;;;;;;;;5091178;28;20105;-61
2021/03/18 13:09:44;;;;;;;49.67;28.67;;;;;;;;;;5084094;28;20059;-63
2021/03/18 13:12:10;;;;;;;69.38;39.47;;;;;;;;;;5069573;28;20039;-63
2021/03/18 13:14:36;;;;;;;40.00;29.45;;;;;;;;;;5057123;28;20111;-63
2021/03/18 13:17:04;;;;;;;79.75;47.70;;;;;;;;;;5071374;28;20497;-63
2021/03/18 13:19:30;;;;;;;43.65;28.17;;;;;;;;;;5071271;28;20047;-63
2021/03/18 13:21:55;;;;;;;25.13;20.63;;;231.00;1587.20;;;;;;5071037;28;20071;-63
2021/03/18 13:24:23;;;;;;;36.33;25.27;;;230.90;1612.80;;;;;;5071295;28;20016;-63
2021/03/18 13:26:50;;;;;;;28.88;22.92;;;230.70;1664.00;;;;;;5071200;28;20048;-63
2021/03/18 13:29:16;;;;;;;54.88;36.97;;;230.70;1689.60;;;;;;5071363;28;20096;-63
2021/03/18 13:31:42;;;;;;;64.53;40.88;;;230.80;1715.20;;;;;;5071232;28;20451;-62
2021/03/18 13:34:09;;;;;;;38.17;27.75;;;230.70;1766.40;;;;;;5071330;28;20772;-63
2021/03/18 13:36:34;;;;;;;54.78;43.92;;;230.70;1766.40;;;;;;5073651;28;20040;-63
2021/03/18 13:39:00;;;;;;;33.45;25.40;;;230.70;1766.40;;;;;;5074525;28;20029;-63